createdAt,value
2022-12-03T00:02:21.777Z,23.70
2022-12-03T00:04:48.805Z,24.60
2022-12-03T00:07:15.527Z,24.60
2022-12-03T00:09:42.348Z,22.50
2022-12-03T00:12:09.210Z,22.60
2022-12-03T00:14:39.969Z,22.20
2022-12-03T00:17:09.901Z,22.10
2022-12-03T00:19:36.696Z,21.50
2022-12-03T00:22:03.600Z,21.00
2022-12-03T00:24:31.056Z,22.80
2022-12-03T00:26:57.905Z,21.90
2022-12-03T00:29:24.635Z,20.90
2022-12-03T00:31:52.204Z,21.30
2022-12-03T00:34:18.843Z,18.90
2022-12-03T00:36:45.526Z,21.60
2022-12-03T00:39:12.269Z,22.40
2022-12-03T00:41:38.986Z,24.10
2022-12-03T00:44:05.874Z,24.30
2022-12-03T00:46:32.715Z,22.80
2022-12-03T00:48:59.659Z,31.60
2022-12-03T00:51:26.404Z,31.00
2022-12-03T00:53:53.094Z,32.30
2022-12-03T00:56:19.828Z,25.50
2022-12-03T00:58:46.805Z,26.00
2022-12-03T01:01:13.652Z,27.90
2022-12-03T01:03:40.486Z,29.20
2022-12-03T01:06:07.392Z,26.60
2022-12-03T01:08:34.090Z,24.20
2022-12-03T01:11:00.886Z,23.90
2022-12-03T01:13:27.760Z,20.20
2022-12-03T01:15:54.511Z,23.90
2022-12-03T01:18:21.304Z,20.70
2022-12-03T01:20:48.203Z,21.50
2022-12-03T01:23:14.901Z,29.10
2022-12-03T01:25:41.746Z,43.50
2022-12-03T01:28:08.614Z,21.70
2022-12-03T01:30:55.471Z,23.70
2022-12-03T01:33:22.376Z,26.20
2022-12-03T01:35:49.011Z,24.10
2022-12-03T01:38:15.748Z,23.40
2022-12-03T01:40:42.511Z,22.60
2022-12-03T01:43:09.229Z,23.80
2022-12-03T01:45:36.049Z,48.00
2022-12-03T01:48:02.773Z,33.60
2022-12-03T01:50:32.609Z,40.50
2022-12-03T01:53:02.019Z,30.40
2022-12-03T01:55:29.282Z,27.30
2022-12-03T01:58:00.484Z,25.60
2022-12-03T02:00:28.246Z,24.50
2022-12-03T02:03:16.949Z,27.80
2022-12-03T02:05:43.756Z,25.00
2022-12-03T02:08:33.178Z,26.30
2022-12-03T02:11:06.330Z,27.00
2022-12-03T02:13:33.329Z,22.80
2022-12-03T02:16:00.218Z,24.90
2022-12-03T02:18:27.018Z,27.20
2022-12-03T02:21:25.956Z,25.30
2022-12-03T02:24:11.208Z,21.60
2022-12-03T02:26:38.185Z,20.30
2022-12-03T02:29:04.984Z,21.10
2022-12-03T02:31:32.508Z,22.20
2022-12-03T02:33:59.397Z,25.10
2022-12-03T02:36:26.596Z,25.30
2022-12-03T02:38:53.320Z,22.80
2022-12-03T02:41:39.358Z,22.30
2022-12-03T02:44:07.630Z,22.60
2022-12-03T02:46:35.351Z,23.20
2022-12-03T02:49:05.005Z,19.30
2022-12-03T02:51:33.117Z,19.00
2022-12-03T02:54:00.496Z,19.00
2022-12-03T02:56:30.554Z,16.90
2022-12-03T02:59:01.563Z,19.20
2022-12-03T03:01:28.702Z,19.30
2022-12-03T03:03:56.481Z,17.90
2022-12-03T03:06:23.757Z,18.80
2022-12-03T03:08:50.792Z,18.60
2022-12-03T03:11:18.027Z,17.50
2022-12-03T03:13:44.910Z,18.00
2022-12-03T03:16:12.019Z,18.10
2022-12-03T03:18:39.300Z,17.40
2022-12-03T03:21:07.224Z,16.40
2022-12-03T03:23:34.092Z,16.20
2022-12-03T03:26:10.451Z,16.90
2022-12-03T03:28:41.024Z,17.00
2022-12-03T03:31:10.798Z,17.10
2022-12-03T03:33:42.943Z,16.10
2022-12-03T03:36:10.537Z,17.30
2022-12-03T03:38:38.309Z,17.10
2022-12-03T03:41:07.601Z,24.60
2022-12-03T03:43:36.626Z,20.20
2022-12-03T03:46:05.354Z,17.00
2022-12-03T03:48:34.221Z,15.00
2022-12-03T03:51:08.757Z,15.30
2022-12-03T03:53:41.009Z,16.40
2022-12-03T03:56:09.009Z,18.40
2022-12-03T03:58:36.510Z,18.20
2022-12-03T04:01:03.421Z,18.00
2022-12-03T04:03:30.404Z,18.20
2022-12-03T04:05:57.473Z,17.50
2022-12-03T04:08:24.252Z,17.50
2022-12-03T04:11:09.848Z,16.70
2022-12-03T04:13:36.581Z,15.90
2022-12-03T04:16:04.132Z,15.90
2022-12-03T04:18:43.220Z,16.60
2022-12-03T04:21:29.793Z,16.70
2022-12-03T04:23:56.517Z,15.90
2022-12-03T04:26:42.712Z,16.00
2022-12-03T04:29:09.939Z,18.90
2022-12-03T04:31:55.612Z,19.80
2022-12-03T04:34:41.580Z,17.30
2022-12-03T04:37:08.935Z,16.80
2022-12-03T04:39:35.968Z,21.30
2022-12-03T04:42:03.941Z,17.70
2022-12-03T04:44:37.062Z,19.50
2022-12-03T04:47:18.304Z,21.50
2022-12-03T04:49:47.791Z,21.10
2022-12-03T04:52:17.035Z,18.40
2022-12-03T04:54:44.151Z,25.50
2022-12-03T04:57:11.645Z,22.70
2022-12-03T04:59:38.745Z,25.70
2022-12-03T05:02:06.646Z,18.80
2022-12-03T05:04:34.064Z,17.80
2022-12-03T05:07:01.442Z,19.10
2022-12-03T05:09:28.176Z,18.10
2022-12-03T05:11:54.916Z,33.80
2022-12-03T05:14:21.616Z,20.00
2022-12-03T05:16:48.679Z,17.70
2022-12-03T05:19:15.507Z,17.40
2022-12-03T05:21:42.213Z,24.70
2022-12-03T05:24:08.991Z,18.20
2022-12-03T05:26:35.862Z,19.50
2022-12-03T05:29:02.672Z,17.70
2022-12-03T05:31:29.469Z,21.60
2022-12-03T05:33:56.186Z,24.20
2022-12-03T05:36:24.730Z,24.50
2022-12-03T05:38:51.876Z,23.20
2022-12-03T05:41:37.079Z,25.10
2022-12-03T05:44:03.866Z,24.60
2022-12-03T05:46:31.957Z,32.70
2022-12-03T05:48:58.694Z,35.10
2022-12-03T05:51:25.460Z,26.70
2022-12-03T05:53:52.373Z,22.00
2022-12-03T05:56:19.074Z,33.50
2022-12-03T05:58:45.825Z,25.70
2022-12-03T06:01:12.554Z,25.50
2022-12-03T06:03:39.339Z,24.40
2022-12-03T06:06:06.237Z,23.90
2022-12-03T06:08:33.013Z,25.00
2022-12-03T06:10:59.805Z,24.50
2022-12-03T06:13:26.570Z,29.00
2022-12-03T06:15:53.276Z,25.20
2022-12-03T06:18:20.078Z,54.10
2022-12-03T06:20:46.828Z,48.20
2022-12-03T06:23:13.561Z,34.20
2022-12-03T06:25:40.289Z,32.10
2022-12-03T06:28:07.027Z,32.90
2022-12-03T06:30:35.288Z,27.70
2022-12-03T06:33:02.644Z,27.70
2022-12-03T06:35:29.514Z,26.70
2022-12-03T06:37:56.401Z,27.70
2022-12-03T06:40:24.217Z,28.10
2022-12-03T06:42:51.307Z,29.30
2022-12-03T06:45:18.141Z,30.00
2022-12-03T06:47:44.970Z,28.90
2022-12-03T06:50:13.104Z,29.30
2022-12-03T06:52:39.894Z,29.30
2022-12-03T06:55:07.413Z,33.20
2022-12-03T06:57:34.448Z,32.60
2022-12-03T07:00:01.718Z,39.20
2022-12-03T07:02:28.529Z,29.90
2022-12-03T07:04:56.144Z,45.10
2022-12-03T07:07:22.999Z,55.10
2022-12-03T07:09:49.662Z,46.00
2022-12-03T07:12:16.413Z,29.20
2022-12-03T07:14:43.138Z,22.90
2022-12-03T07:17:09.854Z,35.00
2022-12-03T07:19:36.574Z,34.40
2022-12-03T07:22:03.445Z,23.00
2022-12-03T07:24:30.262Z,21.10
2022-12-03T07:26:56.992Z,20.80
2022-12-03T07:29:23.933Z,18.30
2022-12-03T07:31:50.777Z,15.30
2022-12-03T07:34:17.547Z,13.50
2022-12-03T07:36:44.335Z,20.60
2022-12-03T07:39:11.040Z,13.70
2022-12-03T07:41:37.745Z,14.10
2022-12-03T07:44:07.794Z,22.00
2022-12-03T07:46:39.909Z,16.80
2022-12-03T07:49:06.681Z,21.40
2022-12-03T07:51:33.423Z,22.60
2022-12-03T07:54:00.287Z,16.90
2022-12-03T07:56:27.231Z,21.40
2022-12-03T07:58:53.984Z,32.10
2022-12-03T08:01:20.778Z,30.80
2022-12-03T08:03:47.614Z,30.90
2022-12-03T08:06:14.352Z,32.50
2022-12-03T08:08:42.742Z,30.00
2022-12-03T08:11:15.918Z,32.90
2022-12-03T08:13:42.893Z,36.80
2022-12-03T08:16:18.642Z,38.00
2022-12-03T08:18:46.652Z,41.10
2022-12-03T08:21:16.132Z,40.20
2022-12-03T08:23:43.257Z,35.90
2022-12-03T08:26:21.109Z,34.40
2022-12-03T08:28:47.956Z,34.00
2022-12-03T08:31:19.386Z,36.40
2022-12-03T08:33:48.922Z,40.30
2022-12-03T08:36:23.078Z,42.40
2022-12-03T08:39:13.600Z,46.80
2022-12-03T08:41:59.165Z,46.10
2022-12-03T08:44:40.316Z,48.40
2022-12-03T08:47:13.593Z,45.40
2022-12-03T08:49:40.643Z,51.80
2022-12-03T08:52:19.949Z,54.40
2022-12-03T08:54:53.182Z,55.90
2022-12-03T08:57:27.783Z,55.20
2022-12-03T09:00:19.265Z,52.80
2022-12-03T09:02:50.208Z,54.00
2022-12-03T09:05:21.291Z,52.30
2022-12-03T09:07:48.339Z,42.30
2022-12-03T09:10:15.222Z,35.40
2022-12-03T09:12:41.945Z,24.10
2022-12-03T09:15:09.125Z,22.60
2022-12-03T09:17:36.935Z,21.40
2022-12-03T09:20:05.082Z,22.60
2022-12-03T09:22:32.350Z,21.80
2022-12-03T09:24:59.441Z,23.40
2022-12-03T09:27:27.057Z,21.70
2022-12-03T09:29:54.016Z,22.80
2022-12-03T09:32:22.501Z,21.40
2022-12-03T09:34:50.376Z,22.00
2022-12-03T09:37:18.481Z,21.90
2022-12-03T09:39:45.556Z,22.30
2022-12-03T09:42:15.495Z,23.00
2022-12-03T09:44:43.319Z,22.80
2022-12-03T09:47:13.408Z,21.80
2022-12-03T09:49:41.116Z,22.20
2022-12-03T09:52:13.327Z,23.00
2022-12-03T09:54:52.134Z,22.40
2022-12-03T09:57:19.424Z,22.00
2022-12-03T09:59:46.136Z,21.60
2022-12-03T10:02:31.018Z,20.80
2022-12-03T10:04:58.226Z,18.50
2022-12-03T10:07:25.951Z,21.10
2022-12-03T10:09:53.296Z,24.00
2022-12-03T10:12:24.230Z,19.70
2022-12-03T10:14:52.914Z,19.50
2022-12-03T10:17:19.840Z,18.80
2022-12-03T10:19:46.712Z,19.70
2022-12-03T10:22:13.477Z,19.80
2022-12-03T10:24:40.417Z,17.70
2022-12-03T10:27:28.662Z,20.90
2022-12-03T10:30:00.801Z,16.50
2022-12-03T10:32:44.280Z,16.40
2022-12-03T10:35:23.865Z,14.80
2022-12-03T10:38:01.096Z,16.20
2022-12-03T10:40:31.476Z,14.40
2022-12-03T10:43:18.719Z,14.00
2022-12-03T10:46:09.541Z,15.10
2022-12-03T10:48:36.446Z,14.60
2022-12-03T10:51:06.365Z,14.80
2022-12-03T10:53:35.869Z,15.80
2022-12-03T10:56:06.209Z,11.70
2022-12-03T10:58:35.527Z,15.40
2022-12-03T11:01:13.122Z,16.20
2022-12-03T11:03:40.254Z,13.40
2022-12-03T11:06:14.494Z,13.90
2022-12-03T11:11:29.376Z,12.70
2022-12-03T11:13:58.501Z,12.30
2022-12-03T11:16:45.917Z,11.40
2022-12-03T11:19:12.525Z,11.20
2022-12-03T11:22:04.248Z,12.00
2022-12-03T11:24:39.136Z,10.90
2022-12-03T11:27:17.347Z,11.00
2022-12-03T11:29:58.038Z,11.40
2022-12-03T11:32:58.776Z,11.50
2022-12-03T11:35:36.229Z,11.40
2022-12-03T11:38:37.384Z,12.10
2022-12-03T11:41:11.760Z,14.30
2022-12-03T11:43:56.828Z,14.80
2022-12-03T11:46:35.958Z,14.60
2022-12-03T11:49:19.798Z,14.20
2022-12-03T11:51:46.711Z,16.20
2022-12-03T11:54:17.067Z,14.20
2022-12-03T11:56:48.384Z,15.60
2022-12-03T11:59:16.911Z,15.90
2022-12-03T12:01:44.708Z,16.00
2022-12-03T12:04:32.514Z,16.20
2022-12-03T12:07:00.616Z,19.40
2022-12-03T12:09:54.203Z,18.50
2022-12-03T12:12:30.821Z,18.70
2022-12-03T12:14:59.011Z,19.80
2022-12-03T12:17:36.144Z,19.20
2022-12-03T12:20:25.010Z,19.00
2022-12-03T12:22:53.733Z,20.30
2022-12-03T12:25:29.382Z,19.90
2022-12-03T12:27:57.001Z,20.30
2022-12-03T12:30:23.823Z,22.00
2022-12-03T12:32:56.688Z,22.70
2022-12-03T12:35:26.114Z,21.60
2022-12-03T12:38:10.366Z,24.10
2022-12-03T12:40:39.549Z,26.10
2022-12-03T12:43:26.085Z,25.90
2022-12-03T12:46:18.747Z,27.40
2022-12-03T12:48:47.762Z,24.80
2022-12-03T12:51:18.258Z,26.90
2022-12-03T12:53:45.154Z,23.70
2022-12-03T12:56:30.467Z,26.20
2022-12-03T12:59:08.932Z,29.00
2022-12-03T13:01:35.746Z,28.80
2022-12-03T13:04:11.848Z,28.80
2022-12-03T13:06:39.625Z,28.50
2022-12-03T13:09:17.241Z,32.60
2022-12-03T13:11:58.660Z,27.30
2022-12-03T13:14:36.413Z,32.10
2022-12-03T13:17:25.391Z,32.10
2022-12-03T13:20:01.932Z,30.90
2022-12-03T13:22:32.117Z,34.60
2022-12-03T13:25:37.945Z,20.30
2022-12-03T13:28:07.505Z,32.30
2022-12-03T13:30:34.450Z,31.90
2022-12-03T13:33:12.967Z,18.10
2022-12-03T13:35:42.194Z,30.40
2022-12-03T13:38:15.254Z,30.40
2022-12-03T13:40:42.170Z,29.70
2022-12-03T13:43:13.823Z,30.10
2022-12-03T13:45:46.478Z,18.00
2022-12-03T13:48:20.860Z,18.50
2022-12-03T13:53:28.703Z,17.10
2022-12-03T13:56:30.410Z,17.80
2022-12-03T13:58:59.681Z,30.40
2022-12-03T14:01:28.008Z,17.80
2022-12-03T14:03:54.957Z,32.30
2022-12-03T14:06:21.977Z,18.40
2022-12-03T14:08:48.763Z,37.30
2022-12-03T14:11:34.673Z,36.00
2022-12-03T14:14:01.717Z,56.90
2022-12-03T14:16:28.693Z,30.60
2022-12-03T14:18:55.444Z,29.60
2022-12-03T14:21:22.348Z,17.00
2022-12-03T14:23:49.138Z,17.60
2022-12-03T14:26:15.856Z,30.20
2022-12-03T14:28:43.014Z,17.10
2022-12-03T14:31:09.734Z,18.10
2022-12-03T14:33:37.667Z,30.10
2022-12-03T14:36:04.740Z,16.70
2022-12-03T14:38:31.630Z,17.30
2022-12-03T14:40:58.410Z,18.30
2022-12-03T14:43:25.145Z,20.00
2022-12-03T14:45:52.042Z,44.00
2022-12-03T14:48:21.245Z,23.80
2022-12-03T14:50:48.000Z,20.10
2022-12-03T14:53:14.705Z,30.20
2022-12-03T14:55:41.486Z,26.00
2022-12-03T14:58:08.264Z,19.50
2022-12-03T15:00:35.059Z,26.10
2022-12-03T15:03:01.763Z,38.80
2022-12-03T15:05:29.281Z,67.10
2022-12-03T15:07:56.274Z,37.40
2022-12-03T15:10:23.228Z,23.60
2022-12-03T15:12:49.984Z,20.00
2022-12-03T15:15:16.816Z,31.90
2022-12-03T15:17:45.004Z,26.20
2022-12-03T15:20:12.282Z,19.20
2022-12-03T15:22:39.019Z,33.60
2022-12-03T15:25:07.116Z,21.10
2022-12-03T15:27:34.047Z,24.10
2022-12-03T15:30:00.913Z,69.50
2022-12-03T15:32:27.897Z,40.30
2022-12-03T15:34:54.837Z,35.50
2022-12-03T15:37:21.857Z,32.50
2022-12-03T15:39:52.787Z,33.30
2022-12-03T15:42:19.762Z,27.80
2022-12-03T15:44:46.450Z,24.70
2022-12-03T15:47:13.248Z,28.40
2022-12-03T15:49:40.117Z,26.70
2022-12-03T15:52:07.364Z,29.60
2022-12-03T15:54:34.088Z,30.20
2022-12-03T15:57:00.818Z,35.70
2022-12-03T15:59:27.560Z,36.10
2022-12-03T16:01:54.631Z,36.20
2022-12-03T16:04:21.675Z,37.90
2022-12-03T16:06:48.506Z,31.30
2022-12-03T16:09:15.180Z,55.90
2022-12-03T16:11:41.973Z,44.30
2022-12-03T16:14:08.841Z,42.80
2022-12-03T16:16:35.699Z,38.00
2022-12-03T16:19:02.628Z,33.40
2022-12-03T16:21:29.463Z,43.20
2022-12-03T16:23:56.248Z,46.20
2022-12-03T16:26:23.381Z,43.10
2022-12-03T16:28:50.167Z,48.60
2022-12-03T16:31:18.513Z,53.90
2022-12-03T16:33:45.513Z,48.20
2022-12-03T16:36:12.226Z,47.30
2022-12-03T16:38:39.102Z,52.30
2022-12-03T16:41:05.856Z,54.40
2022-12-03T16:43:38.129Z,55.10
2022-12-03T16:46:18.103Z,58.00
2022-12-03T16:48:46.474Z,55.70
2022-12-03T16:51:13.255Z,59.20
2022-12-03T16:53:40.042Z,59.40
2022-12-03T16:56:06.880Z,68.10
2022-12-03T16:58:33.643Z,62.30
2022-12-03T17:01:01.249Z,61.50
2022-12-03T17:03:33.667Z,67.20
2022-12-03T17:06:01.729Z,75.50
2022-12-03T17:08:29.220Z,69.90
2022-12-03T17:10:56.129Z,64.90
2022-12-03T17:13:22.947Z,59.70
2022-12-03T17:15:50.152Z,55.00
2022-12-03T17:18:16.895Z,68.80
2022-12-03T17:20:43.820Z,70.50
2022-12-03T17:23:11.301Z,65.90
2022-12-03T17:25:38.095Z,53.90
2022-12-03T17:28:04.983Z,62.60
2022-12-03T17:30:31.776Z,72.60
2022-12-03T17:32:58.793Z,59.20
2022-12-03T17:35:26.288Z,57.20
2022-12-03T17:37:52.972Z,50.90
2022-12-03T17:40:19.924Z,46.80
2022-12-03T17:42:46.666Z,71.80
2022-12-03T17:45:13.448Z,61.30
2022-12-03T17:47:40.557Z,50.10
2022-12-03T17:50:08.245Z,47.30
2022-12-03T17:52:35.054Z,44.50
2022-12-03T17:55:11.855Z,39.30
2022-12-03T17:57:41.306Z,53.60
2022-12-03T18:00:09.923Z,54.40
2022-12-03T18:02:40.609Z,49.80
2022-12-03T18:05:07.819Z,40.90
2022-12-03T18:07:34.720Z,33.60
2022-12-03T18:10:01.624Z,26.70
2022-12-03T18:12:28.697Z,28.70
2022-12-03T18:14:55.421Z,35.90
2022-12-03T18:17:23.652Z,35.60
2022-12-03T18:19:50.461Z,39.80
2022-12-03T18:22:17.640Z,41.30
2022-12-03T18:24:46.270Z,39.50
2022-12-03T18:27:15.105Z,39.60
2022-12-03T18:29:41.911Z,38.00
2022-12-03T18:32:27.121Z,40.40
2022-12-03T18:34:54.771Z,47.20
2022-12-03T18:37:24.349Z,46.70
2022-12-03T18:39:51.165Z,44.00
2022-12-03T18:42:20.599Z,42.30
2022-12-03T18:44:50.002Z,42.80
2022-12-03T18:47:19.737Z,41.10
2022-12-03T18:49:46.943Z,38.20
2022-12-03T18:52:19.666Z,37.60
2022-12-03T18:54:47.357Z,30.30
2022-12-03T18:57:15.062Z,30.40
2022-12-03T18:59:42.080Z,28.20
2022-12-03T19:03:02.040Z,27.20
2022-12-03T19:05:10.272Z,29.90
2022-12-03T19:07:37.279Z,30.60
2022-12-03T19:10:04.815Z,30.70
2022-12-03T19:12:32.153Z,31.60
2022-12-03T19:14:58.848Z,36.20
2022-12-03T19:17:26.600Z,38.30
2022-12-03T19:19:53.874Z,34.60
2022-12-03T19:22:21.077Z,31.30
2022-12-03T19:24:48.116Z,31.40
2022-12-03T19:27:16.078Z,34.10
2022-12-03T19:29:42.895Z,44.00
2022-12-03T19:32:09.711Z,45.70
2022-12-03T19:34:37.485Z,42.10
2022-12-03T19:37:04.277Z,32.20
2022-12-03T19:39:31.324Z,29.00
2022-12-03T19:41:58.600Z,37.00
2022-12-03T19:44:25.499Z,34.60
2022-12-03T19:46:52.355Z,39.80
2022-12-03T19:49:20.809Z,35.80
2022-12-03T19:51:47.899Z,36.60
2022-12-03T19:54:15.548Z,43.20
2022-12-03T19:56:42.579Z,36.20
2022-12-03T19:59:13.757Z,37.50
2022-12-03T20:01:42.513Z,34.80
2022-12-03T20:04:11.504Z,29.80
2022-12-03T20:06:38.979Z,25.70
2022-12-03T20:09:11.554Z,27.60
2022-12-03T20:11:40.300Z,27.50
2022-12-03T20:14:10.194Z,38.10
2022-12-03T20:16:37.040Z,40.00
2022-12-03T20:19:06.524Z,37.90
2022-12-03T20:21:36.389Z,32.90
2022-12-03T20:24:04.148Z,31.70
2022-12-03T20:26:32.162Z,33.30
2022-12-03T20:28:59.893Z,30.10
2022-12-03T20:31:29.000Z,27.90
2022-12-03T20:33:58.629Z,29.90
2022-12-03T20:36:26.591Z,28.00
2022-12-03T20:38:54.962Z,26.70
2022-12-03T20:41:22.304Z,27.80
2022-12-03T20:43:51.208Z,26.50
2022-12-03T20:46:28.623Z,24.40
2022-12-03T20:48:56.535Z,24.20
2022-12-03T20:51:25.773Z,26.30
2022-12-03T20:53:52.907Z,25.30
2022-12-03T20:56:35.493Z,30.50
2022-12-03T20:59:07.167Z,26.00
2022-12-03T21:01:35.374Z,23.30
2022-12-03T21:04:04.087Z,23.70
2022-12-03T21:06:31.479Z,31.10
2022-12-03T21:08:58.744Z,32.00
2022-12-03T21:11:29.110Z,23.90
2022-12-03T21:13:57.018Z,28.60
2022-12-03T21:16:52.521Z,25.10
2022-12-03T21:19:19.999Z,24.80
2022-12-03T21:21:46.842Z,27.00
2022-12-03T21:24:14.055Z,23.10
2022-12-03T21:26:41.014Z,22.80
2022-12-03T21:29:08.144Z,22.40
2022-12-03T21:31:36.782Z,25.10
2022-12-03T21:34:04.525Z,21.40
2022-12-03T21:36:31.825Z,24.20
2022-12-03T21:38:58.643Z,26.40
2022-12-03T21:41:25.767Z,27.00
2022-12-03T21:43:52.735Z,26.50
2022-12-03T21:47:11.453Z,24.00
2022-12-03T21:49:07.042Z,25.00
2022-12-03T21:51:34.008Z,25.90
2022-12-03T21:54:00.791Z,24.80
2022-12-03T21:56:30.228Z,23.30
2022-12-03T21:58:57.017Z,25.70
2022-12-03T22:01:24.135Z,25.10
2022-12-03T22:03:51.033Z,25.30
2022-12-03T22:06:18.694Z,26.40
2022-12-03T22:08:45.686Z,31.20
2022-12-03T22:11:19.407Z,30.90
2022-12-03T22:13:46.645Z,25.60
2022-12-03T22:16:16.970Z,25.60
2022-12-03T22:18:44.451Z,24.00
2022-12-03T22:21:14.476Z,21.10
2022-12-03T22:23:41.344Z,21.70
2022-12-03T22:26:11.512Z,21.20
2022-12-03T22:28:42.539Z,22.00
2022-12-03T22:31:09.819Z,20.50
2022-12-03T22:33:37.794Z,25.60
2022-12-03T22:36:18.273Z,26.10
2022-12-03T22:38:47.747Z,23.40
2022-12-03T22:41:15.430Z,25.70
2022-12-03T22:43:42.375Z,23.90
2022-12-03T22:46:11.677Z,23.50
2022-12-03T22:48:39.155Z,23.40
2022-12-03T22:51:17.941Z,24.60
2022-12-03T22:53:44.769Z,24.80
2022-12-03T22:56:11.610Z,25.60
2022-12-03T22:58:39.823Z,26.60
2022-12-03T23:01:07.370Z,27.60
2022-12-03T23:03:34.349Z,27.10
2022-12-03T23:06:07.721Z,25.30
2022-12-03T23:08:34.487Z,23.70
2022-12-03T23:11:01.240Z,22.00
2022-12-03T23:13:28.166Z,21.30
2022-12-03T23:15:54.913Z,22.70
2022-12-03T23:18:21.831Z,22.40
2022-12-03T23:20:52.365Z,22.30
2022-12-03T23:23:21.395Z,21.80
2022-12-03T23:26:06.683Z,24.10
2022-12-03T23:28:35.725Z,24.60
2022-12-03T23:31:03.821Z,22.00
2022-12-03T23:33:36.697Z,20.70
2022-12-03T23:36:06.461Z,19.70
2022-12-03T23:38:33.326Z,19.30
2022-12-03T23:41:05.412Z,19.10
2022-12-03T23:43:32.408Z,19.40
2022-12-03T23:46:08.581Z,16.40
2022-12-03T23:48:35.502Z,18.70
2022-12-03T23:51:11.584Z,18.90
2022-12-03T23:53:39.549Z,17.40
2022-12-03T23:56:11.114Z,17.50
2022-12-03T23:58:38.220Z,18.90
